sensor_id;sensor_type;location;lat;lon;timestamp;pressure;altitude;pressure_sealevel;temperature;humidity
60970;BME280;46841;48.938;9.502;2024-03-02T00:01:17;97420.13;;;1.92;100.00
60970;BME280;46841;48.938;9.502;2024-03-02T00:03:44;97423.06;;;2.00;100.00
60970;BME280;46841;48.938;9.502;2024-03-02T00:06:11;97429.84;;;1.95;100.00
60970;BME280;46841;48.938;9.502;2024-03-02T00:08:39;97429.75;;;1.92;100.00
60970;BME280;46841;48.938;9.502;2024-03-02T00:11:06;97426.28;;;1.93;100.00
60970;BME280;46841;48.938;9.502;2024-03-02T00:13:32;97431.25;;;1.87;100.00
60970;BME280;46841;48.938;9.502;2024-03-02T00:15:59;97432.09;;;1.86;100.00
60970;BME280;46841;48.938;9.502;2024-03-02T00:18:32;97421.91;;;1.93;100.00
60970;BME280;46841;48.938;9.502;2024-03-02T00:20:58;97419.53;;;1.99;100.00
60970;BME280;46841;48.938;9.502;2024-03-02T00:23:27;97428.97;;;1.94;100.00
60970;BME280;46841;48.938;9.502;2024-03-02T00:25:55;97433.09;;;1.88;100.00
60970;BME280;46841;48.938;9.502;2024-03-02T00:28:33;97429.00;;;1.96;100.00
60970;BME280;46841;48.938;9.502;2024-03-02T00:33:33;97433.97;;;1.88;100.00
60970;BME280;46841;48.938;9.502;2024-03-02T00:35:59;97428.13;;;1.95;100.00
60970;BME280;46841;48.938;9.502;2024-03-02T00:38:27;97421.66;;;1.87;100.00
60970;BME280;46841;48.938;9.502;2024-03-02T00:40:52;97426.56;;;2.00;100.00
60970;BME280;46841;48.938;9.502;2024-03-02T00:46:11;97435.13;;;2.38;100.00
60970;BME280;46841;48.938;9.502;2024-03-02T00:48:36;97435.66;;;2.29;100.00
60970;BME280;46841;48.938;9.502;2024-03-02T00:51:03;97436.38;;;2.25;100.00
60970;BME280;46841;48.938;9.502;2024-03-02T00:53:29;97439.66;;;2.20;100.00
60970;BME280;46841;48.938;9.502;2024-03-02T00:55:55;97442.94;;;2.14;100.00
60970;BME280;46841;48.938;9.502;2024-03-02T00:58:21;97431.47;;;2.12;100.00
60970;BME280;46841;48.938;9.502;2024-03-02T01:00:47;97438.28;;;2.07;100.00
60970;BME280;46841;48.938;9.502;2024-03-02T01:03:12;97444.00;;;1.97;100.00
60970;BME280;46841;48.938;9.502;2024-03-02T01:05:44;97436.91;;;2.17;100.00
60970;BME280;46841;48.938;9.502;2024-03-02T01:08:10;97441.84;;;2.09;100.00
60970;BME280;46841;48.938;9.502;2024-03-02T01:10:36;97435.00;;;1.92;100.00
60970;BME280;46841;48.938;9.502;2024-03-02T01:13:01;97429.81;;;1.93;100.00
60970;BME280;46841;48.938;9.502;2024-03-02T01:15:27;97433.84;;;1.85;100.00
60970;BME280;46841;48.938;9.502;2024-03-02T01:17:52;97427.94;;;1.91;100.00
60970;BME280;46841;48.938;9.502;2024-03-02T01:20:18;97423.22;;;1.82;100.00
60970;BME280;46841;48.938;9.502;2024-03-02T01:22:43;97424.03;;;1.81;100.00
60970;BME280;46841;48.938;9.502;2024-03-02T01:25:09;97434.63;;;1.83;100.00
60970;BME280;46841;48.938;9.502;2024-03-02T01:27:35;97427.59;;;2.04;100.00
60970;BME280;46841;48.938;9.502;2024-03-02T01:30:00;97426.25;;;2.14;100.00
60970;BME280;46841;48.938;9.502;2024-03-02T01:32:26;97425.78;;;2.01;100.00
60970;BME280;46841;48.938;9.502;2024-03-02T01:34:51;97419.66;;;2.02;100.00
60970;BME280;46841;48.938;9.502;2024-03-02T01:37:16;97420.38;;;1.98;100.00
60970;BME280;46841;48.938;9.502;2024-03-02T01:39:42;97419.50;;;2.20;100.00
60970;BME280;46841;48.938;9.502;2024-03-02T01:42:07;97429.97;;;2.19;100.00
60970;BME280;46841;48.938;9.502;2024-03-02T01:44:33;97422.78;;;2.15;100.00
60970;BME280;46841;48.938;9.502;2024-03-02T01:46:58;97428.03;;;2.15;100.00
60970;BME280;46841;48.938;9.502;2024-03-02T01:49:24;97426.19;;;2.12;100.00
60970;BME280;46841;48.938;9.502;2024-03-02T01:51:49;97426.91;;;2.08;100.00
60970;BME280;46841;48.938;9.502;2024-03-02T01:54:15;97428.84;;;2.12;100.00
60970;BME280;46841;48.938;9.502;2024-03-02T01:56:41;97432.72;;;2.01;100.00
60970;BME280;46841;48.938;9.502;2024-03-02T01:59:06;97437.63;;;1.92;100.00
60970;BME280;46841;48.938;9.502;2024-03-02T02:01:32;97429.81;;;1.93;100.00
60970;BME280;46841;48.938;9.502;2024-03-02T02:03:57;97426.97;;;1.89;100.00
60970;BME280;46841;48.938;9.502;2024-03-02T02:06:23;97426.13;;;1.90;100.00
60970;BME280;46841;48.938;9.502;2024-03-02T02:08:48;97426.66;;;1.81;100.00
60970;BME280;46841;48.938;9.502;2024-03-02T02:11:17;97419.94;;;1.88;100.00
60970;BME280;46841;48.938;9.502;2024-03-02T02:13:43;97418.66;;;1.78;100.00
60970;BME280;46841;48.938;9.502;2024-03-02T02:16:08;97417.56;;;1.73;100.00
60970;BME280;46841;48.938;9.502;2024-03-02T02:18:34;97420.59;;;1.63;100.00
60970;BME280;46841;48.938;9.502;2024-03-02T02:21:01;97419.72;;;1.62;100.00
60970;BME280;46841;48.938;9.502;2024-03-02T02:23:27;97415.34;;;1.63;100.00
60970;BME280;46841;48.938;9.502;2024-03-02T02:25:54;97414.75;;;1.68;100.00
60970;BME280;46841;48.938;9.502;2024-03-02T02:28:21;97413.31;;;1.56;100.00
60970;BME280;46841;48.938;9.502;2024-03-02T02:30:46;97416.00;;;1.57;100.00
60970;BME280;46841;48.938;9.502;2024-03-02T02:33:12;97409.41;;;1.46;100.00
60970;BME280;46841;48.938;9.502;2024-03-02T02:35:38;97401.56;;;1.47;100.00
60970;BME280;46841;48.938;9.502;2024-03-02T02:38:04;97393.47;;;1.43;100.00
60970;BME280;46841;48.938;9.502;2024-03-02T02:40:29;97397.94;;;1.65;100.00
60970;BME280;46841;48.938;9.502;2024-03-02T02:42:56;97401.97;;;1.98;100.00
60970;BME280;46841;48.938;9.502;2024-03-02T02:45:22;97392.56;;;1.83;100.00
60970;BME280;46841;48.938;9.502;2024-03-02T02:47:48;97401.00;;;1.75;100.00
60970;BME280;46841;48.938;9.502;2024-03-02T02:50:14;97396.19;;;1.65;100.00
60970;BME280;46841;48.938;9.502;2024-03-02T02:52:41;97393.69;;;1.47;100.00
60970;BME280;46841;48.938;9.502;2024-03-02T02:55:11;97392.13;;;1.32;100.00
60970;BME280;46841;48.938;9.502;2024-03-02T02:57:42;97386.63;;;1.25;100.00
60970;BME280;46841;48.938;9.502;2024-03-02T03:00:12;97385.66;;;1.23;100.00
60970;BME280;46841;48.938;9.502;2024-03-02T03:02:43;97385.09;;;1.31;100.00
60970;BME280;46841;48.938;9.502;2024-03-02T03:05:12;97382.34;;;1.08;100.00
60970;BME280;46841;48.938;9.502;2024-03-02T03:07:40;97379.53;;;1.03;100.00
60970;BME280;46841;48.938;9.502;2024-03-02T03:10:06;97380.31;;;1.01;100.00
60970;BME280;46841;48.938;9.502;2024-03-02T03:12:33;97375.22;;;1.46;100.00
60970;BME280;46841;48.938;9.502;2024-03-02T03:14:59;97388.38;;;1.46;100.00
60970;BME280;46841;48.938;9.502;2024-03-02T03:17:26;97381.88;;;1.38;100.00
60970;BME280;46841;48.938;9.502;2024-03-02T03:19:52;97390.06;;;1.24;100.00
60970;BME280;46841;48.938;9.502;2024-03-02T03:22:21;97383.25;;;1.09;100.00
60970;BME280;46841;48.938;9.502;2024-03-02T03:24:46;97385.16;;;0.92;100.00
60970;BME280;46841;48.938;9.502;2024-03-02T03:27:12;97385.16;;;0.72;100.00
60970;BME280;46841;48.938;9.502;2024-03-02T03:29:37;97382.66;;;0.75;100.00
60970;BME280;46841;48.938;9.502;2024-03-02T03:32:03;97382.22;;;0.86;100.00
60970;BME280;46841;48.938;9.502;2024-03-02T03:34:32;97388.09;;;0.99;100.00
60970;BME280;46841;48.938;9.502;2024-03-02T03:36:58;97388.88;;;0.97;100.00
60970;BME280;46841;48.938;9.502;2024-03-02T03:39:23;97390.84;;;1.22;100.00
60970;BME280;46841;48.938;9.502;2024-03-02T03:41:49;97400.03;;;1.12;100.00
60970;BME280;46841;48.938;9.502;2024-03-02T03:44:14;97395.94;;;1.19;100.00
60970;BME280;46841;48.938;9.502;2024-03-02T03:46:41;97398.06;;;1.07;100.00
60970;BME280;46841;48.938;9.502;2024-03-02T03:49:06;97395.91;;;0.98;100.00
60970;BME280;46841;48.938;9.502;2024-03-02T03:51:33;97397.03;;;0.84;100.00
60970;BME280;46841;48.938;9.502;2024-03-02T03:53:59;97392.41;;;0.78;100.00
60970;BME280;46841;48.938;9.502;2024-03-02T03:56:25;97399.16;;;0.73;100.00
60970;BME280;46841;48.938;9.502;2024-03-02T03:58:50;97393.41;;;0.62;100.00
60970;BME280;46841;48.938;9.502;2024-03-02T04:01:15;97387.78;;;0.72;100.00
60970;BME280;46841;48.938;9.502;2024-03-02T04:03:41;97391.72;;;0.63;100.00
60970;BME280;46841;48.938;9.502;2024-03-02T04:06:06;97386.53;;;0.64;100.00
60970;BME280;46841;48.938;9.502;2024-03-02T04:08:32;97385.06;;;0.71;100.00
60970;BME280;46841;48.938;9.502;2024-03-02T04:10:57;97391.63;;;0.61;100.00
60970;BME280;46841;48.938;9.502;2024-03-02T04:13:23;97390.50;;;0.56;100.00
60970;BME280;46841;48.938;9.502;2024-03-02T04:15:48;97392.50;;;0.42;100.00
60970;BME280;46841;48.938;9.502;2024-03-02T04:18:14;97395.31;;;0.47;100.00
60970;BME280;46841;48.938;9.502;2024-03-02T04:20:39;97395.47;;;0.50;100.00
60970;BME280;46841;48.938;9.502;2024-03-02T04:23:05;97396.59;;;0.55;100.00
60970;BME280;46841;48.938;9.502;2024-03-02T04:25:32;97396.38;;;0.50;100.00
60970;BME280;46841;48.938;9.502;2024-03-02T04:27:57;97398.66;;;0.62;100.00
60970;BME280;46841;48.938;9.502;2024-03-02T04:30:25;97392.19;;;0.54;100.00
60970;BME280;46841;48.938;9.502;2024-03-02T04:32:51;97394.38;;;0.45;100.00
60970;BME280;46841;48.938;9.502;2024-03-02T04:35:17;97399.97;;;0.52;100.00
60970;BME280;46841;48.938;9.502;2024-03-02T04:37:42;97398.13;;;0.32;100.00
60970;BME280;46841;48.938;9.502;2024-03-02T04:40:08;97387.44;;;0.28;100.00
60970;BME280;46841;48.938;9.502;2024-03-02T04:42:34;97393.53;;;0.46;100.00
60970;BME280;46841;48.938;9.502;2024-03-02T04:45:00;97394.91;;;0.38;100.00
60970;BME280;46841;48.938;9.502;2024-03-02T04:47:25;97403.81;;;0.41;100.00
60970;BME280;46841;48.938;9.502;2024-03-02T04:49:51;97402.66;;;0.35;100.00
60970;BME280;46841;48.938;9.502;2024-03-02T04:52:16;97402.41;;;0.48;100.00
60970;BME280;46841;48.938;9.502;2024-03-02T04:54:42;97403.16;;;0.28;100.00
60970;BME280;46841;48.938;9.502;2024-03-02T04:57:27;97404.38;;;0.34;100.00
60970;BME280;46841;48.938;9.502;2024-03-02T04:59:53;97404.28;;;0.33;100.00
60970;BME280;46841;48.938;9.502;2024-03-02T05:02:19;97401.44;;;0.28;100.00
60970;BME280;46841;48.938;9.502;2024-03-02T05:04:44;97397.25;;;0.14;100.00
60970;BME280;46841;48.938;9.502;2024-03-02T05:07:10;97396.69;;;0.19;100.00
60970;BME280;46841;48.938;9.502;2024-03-02T05:09:35;97401.72;;;0.15;100.00
60970;BME280;46841;48.938;9.502;2024-03-02T05:12:01;97395.63;;;0.16;100.00
60970;BME280;46841;48.938;9.502;2024-03-02T05:14:45;97394.50;;;0.11;100.00
60970;BME280;46841;48.938;9.502;2024-03-02T05:17:11;97396.75;;;0.21;100.00
60970;BME280;46841;48.938;9.502;2024-03-02T05:19:36;97408.06;;;0.02;100.00
60970;BME280;46841;48.938;9.502;2024-03-02T05:22:02;97403.56;;;0.17;100.00
60970;BME280;46841;48.938;9.502;2024-03-02T05:24:28;97403.34;;;0.13;100.00
60970;BME280;46841;48.938;9.502;2024-03-02T05:26:54;97400.94;;;0.17;100.00
60970;BME280;46841;48.938;9.502;2024-03-02T05:29:19;97397.19;;;0.12;100.00
60970;BME280;46841;48.938;9.502;2024-03-02T05:31:45;97398.25;;;-0.02;100.00
60970;BME280;46841;48.938;9.502;2024-03-02T05:34:11;97388.94;;;0.05;100.00
60970;BME280;46841;48.938;9.502;2024-03-02T05:36:36;97386.88;;;-0.03;100.00
60970;BME280;46841;48.938;9.502;2024-03-02T05:39:04;97385.63;;;0.27;100.00
60970;BME280;46841;48.938;9.502;2024-03-02T05:41:31;97397.25;;;0.32;100.00
60970;BME280;46841;48.938;9.502;2024-03-02T05:43:56;97394.47;;;0.29;100.00
60970;BME280;46841;48.938;9.502;2024-03-02T05:46:22;97391.72;;;0.25;100.00
60970;BME280;46841;48.938;9.502;2024-03-02T05:48:48;97394.78;;;0.17;100.00
60970;BME280;46841;48.938;9.502;2024-03-02T05:51:15;97401.59;;;0.13;100.00
60970;BME280;46841;48.938;9.502;2024-03-02T05:53:41;97396.31;;;0.12;100.00
60970;BME280;46841;48.938;9.502;2024-03-02T05:56:07;97398.88;;;0.10;100.00
60970;BME280;46841;48.938;9.502;2024-03-02T05:58:34;97400.59;;;-0.08;100.00
60970;BME280;46841;48.938;9.502;2024-03-02T06:01:23;97403.22;;;-0.08;100.00
60970;BME280;46841;48.938;9.502;2024-03-02T06:03:55;97404.50;;;-0.18;100.00
60970;BME280;46841;48.938;9.502;2024-03-02T06:06:22;97413.41;;;-0.14;100.00
60970;BME280;46841;48.938;9.502;2024-03-02T06:08:48;97410.69;;;0.02;100.00
60970;BME280;46841;48.938;9.502;2024-03-02T06:11:13;97409.28;;;-0.09;100.00
60970;BME280;46841;48.938;9.502;2024-03-02T06:13:38;97411.91;;;-0.27;100.00
60970;BME280;46841;48.938;9.502;2024-03-02T06:16:04;97419.09;;;-0.23;100.00
60970;BME280;46841;48.938;9.502;2024-03-02T06:18:30;97412.25;;;-0.19;100.00
60970;BME280;46841;48.938;9.502;2024-03-02T06:20:55;97413.09;;;-0.20;100.00
60970;BME280;46841;48.938;9.502;2024-03-02T06:23:21;97422.22;;;-0.12;100.00
60970;BME280;46841;48.938;9.502;2024-03-02T06:25:49;97422.97;;;-0.15;100.00
60970;BME280;46841;48.938;9.502;2024-03-02T06:28:15;97426.88;;;-0.07;100.00
60970;BME280;46841;48.938;9.502;2024-03-02T06:30:41;97429.13;;;-0.14;100.00
60970;BME280;46841;48.938;9.502;2024-03-02T06:33:11;97435.09;;;-0.17;100.00
60970;BME280;46841;48.938;9.502;2024-03-02T06:35:36;97435.28;;;-0.14;100.00
60970;BME280;46841;48.938;9.502;2024-03-02T06:38:02;97440.41;;;-0.15;100.00
60970;BME280;46841;48.938;9.502;2024-03-02T06:40:27;97437.97;;;-0.12;100.00
60970;BME280;46841;48.938;9.502;2024-03-02T06:42:53;97440.44;;;0.03;100.00
60970;BME280;46841;48.938;9.502;2024-03-02T06:45:20;97439.44;;;0.18;100.00
60970;BME280;46841;48.938;9.502;2024-03-02T06:47:47;97440.03;;;0.13;100.00
60970;BME280;46841;48.938;9.502;2024-03-02T06:50:13;97438.09;;;0.27;100.00
60970;BME280;46841;48.938;9.502;2024-03-02T06:52:39;97436.09;;;0.21;100.00
60970;BME280;46841;48.938;9.502;2024-03-02T06:55:05;97431.72;;;0.39;100.00
60970;BME280;46841;48.938;9.502;2024-03-02T06:57:31;97431.25;;;0.48;100.00
60970;BME280;46841;48.938;9.502;2024-03-02T07:00:06;97429.66;;;0.51;100.00
60970;BME280;46841;48.938;9.502;2024-03-02T07:02:39;97431.56;;;0.73;100.00
60970;BME280;46841;48.938;9.502;2024-03-02T07:05:25;97429.00;;;0.75;100.00
60970;BME280;46841;48.938;9.502;2024-03-02T07:07:50;97425.97;;;0.85;100.00
60970;BME280;46841;48.938;9.502;2024-03-02T07:10:24;97426.47;;;0.96;100.00
60970;BME280;46841;48.938;9.502;2024-03-02T07:12:50;97423.00;;;0.97;100.00
60970;BME280;46841;48.938;9.502;2024-03-02T07:15:15;97414.72;;;1.07;100.00
60970;BME280;46841;48.938;9.502;2024-03-02T07:17:56;97421.31;;;1.18;100.00
60970;BME280;46841;48.938;9.502;2024-03-02T07:20:22;97425.66;;;1.37;100.00
60970;BME280;46841;48.938;9.502;2024-03-02T07:22:47;97424.38;;;1.48;99.96
60970;BME280;46841;48.938;9.502;2024-03-02T07:25:13;97422.81;;;1.73;99.32
60970;BME280;46841;48.938;9.502;2024-03-02T07:27:39;97428.34;;;1.79;98.42
60970;BME280;46841;48.938;9.502;2024-03-02T07:30:06;97427.22;;;1.95;97.97
60970;BME280;46841;48.938;9.502;2024-03-02T07:32:37;97420.56;;;2.03;97.30
60970;BME280;46841;48.938;9.502;2024-03-02T07:35:11;97418.91;;;2.27;96.70
60970;BME280;46841;48.938;9.502;2024-03-02T07:37:46;97416.66;;;2.59;96.00
60970;BME280;46841;48.938;9.502;2024-03-02T07:40:15;97414.13;;;2.85;95.50
60970;BME280;46841;48.938;9.502;2024-03-02T07:42:46;97412.34;;;3.31;95.50
60970;BME280;46841;48.938;9.502;2024-03-02T07:45:18;97415.16;;;3.62;93.44
60970;BME280;46841;48.938;9.502;2024-03-02T07:47:43;97411.78;;;4.18;92.92
60970;BME280;46841;48.938;9.502;2024-03-02T07:50:12;97413.22;;;4.64;90.65
60970;BME280;46841;48.938;9.502;2024-03-02T07:52:37;97415.75;;;5.18;89.09
60970;BME280;46841;48.938;9.502;2024-03-02T07:55:06;97414.38;;;5.64;88.37
60970;BME280;46841;48.938;9.502;2024-03-02T07:57:34;97416.66;;;5.83;87.36
60970;BME280;46841;48.938;9.502;2024-03-02T08:00:09;97422.56;;;6.05;86.76
60970;BME280;46841;48.938;9.502;2024-03-02T08:02:45;97422.63;;;6.08;87.23
60970;BME280;46841;48.938;9.502;2024-03-02T08:05:24;97425.69;;;6.23;86.90
60970;BME280;46841;48.938;9.502;2024-03-02T08:08:15;97428.84;;;6.45;85.32
60970;BME280;46841;48.938;9.502;2024-03-02T08:10:49;97416.31;;;7.14;87.33
60970;BME280;46841;48.938;9.502;2024-03-02T08:13:32;97420.22;;;7.33;83.72
60970;BME280;46841;48.938;9.502;2024-03-02T08:16:12;97420.69;;;8.05;84.41
60970;BME280;46841;48.938;9.502;2024-03-02T08:18:37;97424.19;;;8.51;83.39
60970;BME280;46841;48.938;9.502;2024-03-02T08:21:07;97426.63;;;8.38;81.74
60970;BME280;46841;48.938;9.502;2024-03-02T08:23:38;97423.13;;;8.41;79.81
60970;BME280;46841;48.938;9.502;2024-03-02T08:26:06;97423.47;;;8.11;79.23
60970;BME280;46841;48.938;9.502;2024-03-02T08:28:32;97417.28;;;8.10;82.84
60970;BME280;46841;48.938;9.502;2024-03-02T08:31:01;97426.75;;;7.49;81.47
60970;BME280;46841;48.938;9.502;2024-03-02T08:33:28;97420.63;;;8.00;86.03
60970;BME280;46841;48.938;9.502;2024-03-02T08:36:02;97419.25;;;8.23;83.92
60970;BME280;46841;48.938;9.502;2024-03-02T08:38:34;97418.53;;;8.32;84.67
60970;BME280;46841;48.938;9.502;2024-03-02T08:41:03;97415.75;;;8.25;83.81
60970;BME280;46841;48.938;9.502;2024-03-02T08:43:33;97412.22;;;8.27;84.46
60970;BME280;46841;48.938;9.502;2024-03-02T08:45:58;97410.75;;;8.43;84.33
60970;BME280;46841;48.938;9.502;2024-03-02T08:48:28;97411.75;;;8.50;84.66
60970;BME280;46841;48.938;9.502;2024-03-02T08:50:53;97399.28;;;8.45;83.88
60970;BME280;46841;48.938;9.502;2024-03-02T08:53:22;97401.06;;;8.46;83.87
60970;BME280;46841;48.938;9.502;2024-03-02T08:55:53;97409.78;;;8.36;80.70
60970;BME280;46841;48.938;9.502;2024-03-02T08:58:29;97402.38;;;8.73;85.50
60970;BME280;46841;48.938;9.502;2024-03-02T09:01:11;97397.25;;;8.87;84.64
60970;BME280;46841;48.938;9.502;2024-03-02T09:03:39;97382.34;;;8.99;81.91
60970;BME280;46841;48.938;9.502;2024-03-02T09:06:38;97388.41;;;8.89;83.03
60970;BME280;46841;48.938;9.502;2024-03-02T09:09:21;97385.41;;;8.65;81.70
60970;BME280;46841;48.938;9.502;2024-03-02T09:11:53;97392.88;;;8.34;80.90
60970;BME280;46841;48.938;9.502;2024-03-02T09:14:35;97384.47;;;8.61;81.82
60970;BME280;46841;48.938;9.502;2024-03-02T09:17:08;97382.81;;;8.68;82.40
60970;BME280;46841;48.938;9.502;2024-03-02T09:19:36;97382.19;;;8.87;82.43
60970;BME280;46841;48.938;9.502;2024-03-02T09:22:04;97376.38;;;9.17;79.28
60970;BME280;46841;48.938;9.502;2024-03-02T09:24:31;97365.84;;;9.27;75.88
60970;BME280;46841;48.938;9.502;2024-03-02T09:26:58;97368.13;;;9.69;74.83
60970;BME280;46841;48.938;9.502;2024-03-02T09:29:24;97370.31;;;10.13;72.59
60970;BME280;46841;48.938;9.502;2024-03-02T09:31:49;97364.88;;;11.30;70.26
60970;BME280;46841;48.938;9.502;2024-03-02T09:34:17;97361.59;;;12.75;64.67
60970;BME280;46841;48.938;9.502;2024-03-02T09:36:43;97350.16;;;14.32;59.19
60970;BME280;46841;48.938;9.502;2024-03-02T09:39:12;97326.78;;;15.33;54.92
60970;BME280;46841;48.938;9.502;2024-03-02T09:41:40;97342.47;;;15.70;51.12
60970;BME280;46841;48.938;9.502;2024-03-02T09:44:06;97336.56;;;16.62;48.30
60970;BME280;46841;48.938;9.502;2024-03-02T09:46:31;97338.66;;;16.99;44.52
60970;BME280;46841;48.938;9.502;2024-03-02T09:48:58;97335.63;;;18.41;41.75
60970;BME280;46841;48.938;9.502;2024-03-02T09:51:28;97334.84;;;17.55;40.69
60970;BME280;46841;48.938;9.502;2024-03-02T09:53:54;97340.53;;;15.82;44.77
60970;BME280;46841;48.938;9.502;2024-03-02T09:56:21;97339.78;;;15.70;44.20
60970;BME280;46841;48.938;9.502;2024-03-02T09:58:47;97337.53;;;17.10;41.37
60970;BME280;46841;48.938;9.502;2024-03-02T10:01:12;97334.06;;;15.96;43.03
60970;BME280;46841;48.938;9.502;2024-03-02T10:03:39;97338.00;;;15.72;43.82
60970;BME280;46841;48.938;9.502;2024-03-02T10:06:24;97335.22;;;17.37;42.16
60970;BME280;46841;48.938;9.502;2024-03-02T10:08:50;97330.69;;;18.58;38.13
60970;BME280;46841;48.938;9.502;2024-03-02T10:11:33;97324.81;;;18.78;38.82
60970;BME280;46841;48.938;9.502;2024-03-02T10:14:09;97324.00;;;19.40;37.27
60970;BME280;46841;48.938;9.502;2024-03-02T10:16:37;97318.72;;;19.68;36.91
60970;BME280;46841;48.938;9.502;2024-03-02T10:19:20;97312.13;;;19.14;37.10
60970;BME280;46841;48.938;9.502;2024-03-02T10:21:49;97315.28;;;20.20;34.41
60970;BME280;46841;48.938;9.502;2024-03-02T10:24:17;97312.19;;;20.33;33.47
60970;BME280;46841;48.938;9.502;2024-03-02T10:26:43;97310.44;;;19.74;33.63
60970;BME280;46841;48.938;9.502;2024-03-02T10:29:11;97319.44;;;18.02;37.65
60970;BME280;46841;48.938;9.502;2024-03-02T10:31:44;97318.94;;;17.85;36.99
60970;BME280;46841;48.938;9.502;2024-03-02T10:34:12;97322.41;;;17.03;37.29
60970;BME280;46841;48.938;9.502;2024-03-02T10:36:48;97317.44;;;17.70;37.41
60970;BME280;46841;48.938;9.502;2024-03-02T10:39:27;97311.09;;;19.18;34.47
60970;BME280;46841;48.938;9.502;2024-03-02T10:42:02;97310.75;;;18.62;35.55
60970;BME280;46841;48.938;9.502;2024-03-02T10:44:31;97306.66;;;19.16;35.40
60970;BME280;46841;48.938;9.502;2024-03-02T10:47:27;97316.13;;;19.94;34.11
60970;BME280;46841;48.938;9.502;2024-03-02T10:50:05;97300.81;;;19.93;33.58
60970;BME280;46841;48.938;9.502;2024-03-02T10:52:38;97305.16;;;19.69;34.15
60970;BME280;46841;48.938;9.502;2024-03-02T10:55:45;97303.59;;;20.48;33.41
60970;BME280;46841;48.938;9.502;2024-03-02T10:58:14;97295.22;;;21.34;31.51
60970;BME280;46841;48.938;9.502;2024-03-02T11:00:43;97284.84;;;21.45;32.44
60970;BME280;46841;48.938;9.502;2024-03-02T11:03:12;97286.88;;;20.06;34.51
60970;BME280;46841;48.938;9.502;2024-03-02T11:05:44;97276.03;;;19.15;34.14
60970;BME280;46841;48.938;9.502;2024-03-02T11:08:18;97263.38;;;20.89;32.64
60970;BME280;46841;48.938;9.502;2024-03-02T11:10:56;97265.97;;;20.11;33.28
60970;BME280;46841;48.938;9.502;2024-03-02T11:13:35;97259.06;;;22.25;30.60
60970;BME280;46841;48.938;9.502;2024-03-02T11:16:11;97254.66;;;22.87;28.68
60970;BME280;46841;48.938;9.502;2024-03-02T11:18:39;97258.56;;;18.96;34.16
60970;BME280;46841;48.938;9.502;2024-03-02T11:21:06;97257.03;;;19.18;34.29
60970;BME280;46841;48.938;9.502;2024-03-02T11:23:36;97250.34;;;19.32;35.59
60970;BME280;46841;48.938;9.502;2024-03-02T11:26:20;97257.16;;;17.73;37.07
60970;BME280;46841;48.938;9.502;2024-03-02T11:28:46;97247.03;;;18.21;36.98
60970;BME280;46841;48.938;9.502;2024-03-02T11:31:12;97252.38;;;17.45;38.34
60970;BME280;46841;48.938;9.502;2024-03-02T11:33:37;97231.88;;;19.46;34.44
60970;BME280;46841;48.938;9.502;2024-03-02T11:36:07;97228.63;;;19.94;32.95
60970;BME280;46841;48.938;9.502;2024-03-02T11:38:36;97218.75;;;21.22;31.01
60970;BME280;46841;48.938;9.502;2024-03-02T11:41:06;97228.91;;;19.85;33.32
60970;BME280;46841;48.938;9.502;2024-03-02T11:43:37;97221.16;;;19.72;33.07
60970;BME280;46841;48.938;9.502;2024-03-02T11:46:05;97214.25;;;19.33;34.67
60970;BME280;46841;48.938;9.502;2024-03-02T11:48:39;97214.66;;;18.88;34.89
60970;BME280;46841;48.938;9.502;2024-03-02T11:51:07;97199.72;;;21.93;31.91
60970;BME280;46841;48.938;9.502;2024-03-02T11:53:35;97195.72;;;23.08;29.34
60970;BME280;46841;48.938;9.502;2024-03-02T11:56:09;97196.34;;;20.14;32.84
60970;BME280;46841;48.938;9.502;2024-03-02T11:58:39;97194.31;;;19.94;34.43
60970;BME280;46841;48.938;9.502;2024-03-02T12:01:10;97182.47;;;21.25;35.00
60970;BME280;46841;48.938;9.502;2024-03-02T12:03:35;97170.50;;;22.42;29.46
60970;BME280;46841;48.938;9.502;2024-03-02T12:06:04;97173.78;;;20.67;31.82
60970;BME280;46841;48.938;9.502;2024-03-02T12:08:34;97171.75;;;19.94;33.54
60970;BME280;46841;48.938;9.502;2024-03-02T12:11:03;97161.78;;;21.22;32.21
60970;BME280;46841;48.938;9.502;2024-03-02T12:13:29;97161.91;;;21.43;31.18
60970;BME280;46841;48.938;9.502;2024-03-02T12:15:57;97153.03;;;22.05;31.12
60970;BME280;46841;48.938;9.502;2024-03-02T12:18:23;97161.00;;;20.19;33.58
60970;BME280;46841;48.938;9.502;2024-03-02T12:20:50;97164.66;;;21.18;31.54
60970;BME280;46841;48.938;9.502;2024-03-02T12:23:22;97160.88;;;21.22;33.29
60970;BME280;46841;48.938;9.502;2024-03-02T12:25:59;97152.69;;;21.23;31.18
60970;BME280;46841;48.938;9.502;2024-03-02T12:28:30;97140.94;;;20.24;30.97
60970;BME280;46841;48.938;9.502;2024-03-02T12:31:03;97137.41;;;20.97;32.88
60970;BME280;46841;48.938;9.502;2024-03-02T12:33:31;97134.94;;;21.62;30.68
60970;BME280;46841;48.938;9.502;2024-03-02T12:36:01;97139.50;;;21.38;31.50
60970;BME280;46841;48.938;9.502;2024-03-02T12:38:28;97134.00;;;20.16;32.03
60970;BME280;46841;48.938;9.502;2024-03-02T12:40:56;97142.41;;;20.08;32.52
60970;BME280;46841;48.938;9.502;2024-03-02T12:43:23;97133.53;;;21.05;31.21
60970;BME280;46841;48.938;9.502;2024-03-02T12:45:59;97128.34;;;18.82;33.84
60970;BME280;46841;48.938;9.502;2024-03-02T12:48:25;97128.63;;;20.91;31.69
60970;BME280;46841;48.938;9.502;2024-03-02T12:50:52;97116.91;;;21.37;29.47
60970;BME280;46841;48.938;9.502;2024-03-02T12:53:21;97120.00;;;20.55;30.47
60970;BME280;46841;48.938;9.502;2024-03-02T12:55:49;97130.25;;;20.20;32.06
60970;BME280;46841;48.938;9.502;2024-03-02T12:58:23;97116.72;;;20.95;31.18
60970;BME280;46841;48.938;9.502;2024-03-02T13:01:07;97124.50;;;20.29;32.00
60970;BME280;46841;48.938;9.502;2024-03-02T13:03:38;97105.50;;;20.81;30.36
60970;BME280;46841;48.938;9.502;2024-03-02T13:06:10;97100.56;;;21.83;28.58
60970;BME280;46841;48.938;9.502;2024-03-02T13:08:45;97106.25;;;19.83;31.09
60970;BME280;46841;48.938;9.502;2024-03-02T13:11:18;97109.75;;;20.88;30.56
60970;BME280;46841;48.938;9.502;2024-03-02T13:13:54;97106.03;;;22.03;28.70
60970;BME280;46841;48.938;9.502;2024-03-02T13:16:22;97106.25;;;22.82;26.78